Time;durP1;ratioP1;P1;durP2;ratioP2;P2;SDS_P1;SDS_P2;PMS_P1;PMS_P2;Temp;Humidity;BMP_temperature;BMP_pressure;BME280_temperature;BME280_humidity;BME280_pressure;Samples;Min_cycle;Max_cycle;Signal;HPM_P1;HPM_P2
2022/11/27 00:01:08;;;;;;;99.95;66.28;;;;;;;;;;4994981;28;20042;-73
2022/11/27 00:03:34;;;;;;;97.00;66.40;;;;;;;;;;4995040;28;20038;-72
2022/11/27 00:06:00;;;;;;;105.03;68.10;;;;;;;;;;4994877;28;20018;-73
2022/11/27 00:08:26;;;;;;;99.88;64.82;;;;;;;;;;4994944;28;20397;-70
2022/11/27 00:10:52;;;;;;;99.10;65.72;;;;;;;;;;4995148;28;20104;-71
2022/11/27 00:13:18;;;;;;;87.18;58.63;;;;;;;;;;4995088;28;20488;-73
2022/11/27 00:15:44;;;;;;;84.18;56.85;;;;;;;;;;4994996;28;20477;-71
2022/11/27 00:18:10;;;;;;;106.50;65.53;;;;;;;;;;4994670;28;20046;-71
2022/11/27 00:20:36;;;;;;;133.52;80.00;;;;;;;;;;4986590;28;20031;-76
2022/11/27 00:23:02;;;;;;;124.13;72.75;;;;;;;;;;4989699;28;20029;-71
2022/11/27 00:25:31;;;;;;;99.50;66.90;;;;;;;;;;4995160;28;20102;-69
2022/11/27 00:27:57;;;;;;;95.57;64.75;;;;;;;;;;4995032;28;20034;-69
2022/11/27 00:30:23;;;;;;;109.20;68.97;;;;;;;;;;4995005;28;20034;-71
2022/11/27 00:32:49;;;;;;;101.10;65.25;;;;;;;;;;4994070;28;20026;-71
2022/11/27 00:35:25;;;;;;;98.47;65.05;;;;;;;;;;4994534;28;20065;-69
2022/11/27 00:37:51;;;;;;;103.10;67.60;;;;;;;;;;4994826;28;20515;-70
2022/11/27 00:40:19;;;;;;;113.18;75.03;;;;;;;;;;4994153;28;20030;-71
2022/11/27 00:42:45;;;;;;;120.10;76.30;;;;;;;;;;4994620;28;20026;-73
2022/11/27 00:45:11;;;;;;;108.70;75.28;;;;;;;;;;4994572;28;20100;-71
2022/11/27 00:47:38;;;;;;;117.55;75.15;;;;;;;;;;4994919;28;20441;-71
2022/11/27 00:50:04;;;;;;;106.32;72.00;;;;;;;;;;4991234;28;20027;-71
2022/11/27 00:52:31;;;;;;;107.80;69.85;;;;;;;;;;4994185;28;20034;-72
2022/11/27 00:54:57;;;;;;;104.60;74.75;;;;;;;;;;4994146;28;20085;-71
2022/11/27 00:57:24;;;;;;;103.22;73.05;;;;;;;;;;4994219;28;20491;-72
2022/11/27 00:59:51;;;;;;;102.32;69.28;;;;;;;;;;4993928;28;20030;-72
2022/11/27 01:02:17;;;;;;;102.78;69.38;;;;;;;;;;4994103;28;20522;-70
2022/11/27 01:04:46;;;;;;;101.85;70.97;;;;;;;;;;4994308;28;20038;-73
2022/11/27 01:07:12;;;;;;;114.03;74.78;;;;;;;;;;4993987;28;20044;-73
2022/11/27 01:09:39;;;;;;;151.93;89.15;;;;;;;;;;4994316;28;20102;-72
2022/11/27 01:12:05;;;;;;;135.98;85.40;;;;;;;;;;4993870;28;20052;-70
2022/11/27 01:14:31;;;;;;;107.40;70.32;;;;;;;;;;4993836;28;20042;-74
2022/11/27 01:16:57;;;;;;;108.07;72.90;;;;;;;;;;4993577;28;20070;-72
2022/11/27 01:19:23;;;;;;;106.13;69.47;;;;;;;;;;4993569;28;20092;-70
2022/11/27 01:21:49;;;;;;;123.78;81.95;;;;;;;;;;4985722;28;20400;-69
2022/11/27 01:24:16;;;;;;;121.75;76.28;;;;;;;;;;4993653;28;20027;-70
2022/11/27 01:26:42;;;;;;;102.88;67.72;;;;;;;;;;4992047;28;20026;-70
2022/11/27 01:29:09;;;;;;;100.20;64.55;;;;;;;;;;4993774;28;20193;-70
2022/11/27 01:31:35;;;;;;;100.55;66.40;;;;;;;;;;4993690;28;20018;-70
2022/11/27 01:34:03;;;;;;;103.85;67.30;;;;;;;;;;4993196;28;20034;-69
2022/11/27 01:36:29;;;;;;;87.93;60.10;;;;;;;;;;4992644;28;20028;-74
2022/11/27 01:38:55;;;;;;;98.07;63.08;;;;;;;;;;4993613;28;20492;-73
2022/11/27 01:41:24;;;;;;;89.50;61.22;;;;;;;;;;4993632;28;20027;-71
2022/11/27 01:43:55;;;;;;;88.30;58.85;;;;;;;;;;4992465;28;20030;-71
2022/11/27 01:46:21;;;;;;;86.10;58.20;;;;;;;;;;4976195;28;20033;-71
2022/11/27 01:48:47;;;;;;;90.35;59.78;;;;;;;;;;4993142;28;20022;-73
2022/11/27 01:51:13;;;;;;;88.95;58.08;;;;;;;;;;4990328;28;20362;-74
2022/11/27 01:53:40;;;;;;;95.57;63.47;;;;;;;;;;4992827;28;20511;-72
2022/11/27 01:56:07;;;;;;;96.30;65.03;;;;;;;;;;4993645;28;20365;-75
2022/11/27 01:58:34;;;;;;;92.68;63.28;;;;;;;;;;4993101;28;20124;-70
2022/11/27 02:01:00;;;;;;;104.93;66.20;;;;;;;;;;4992968;28;20492;-73
2022/11/27 02:03:26;;;;;;;99.00;66.32;;;;;;;;;;4993085;28;20380;-75
2022/11/27 02:05:52;;;;;;;116.82;71.88;;;;;;;;;;4992922;28;20018;-71
2022/11/27 02:08:18;;;;;;;108.35;72.80;;;;;;;;;;4992912;28;20030;-73
2022/11/27 02:11:03;;;;;;;117.05;80.45;;;;;;;;;;4992816;28;20054;-74
2022/11/27 02:13:32;;;;;;;107.30;73.07;;;;;;;;;;4987314;28;20042;-70
2022/11/27 02:16:10;;;;;;;109.20;69.10;;;;;;;;;;4990914;28;20026;-70
2022/11/27 02:18:55;;;;;;;97.43;65.82;;;;;;;;;;4993234;28;20435;-72
2022/11/27 02:21:27;;;;;;;90.28;60.83;;;;;;;;;;4985408;28;20045;-73
2022/11/27 02:24:01;;;;;;;100.30;64.05;;;;;;;;;;4992824;28;20050;-73
2022/11/27 02:27:02;;;;;;;90.75;59.58;;;;;;;;;;4992682;28;20449;-71
2022/11/27 02:29:31;;;;;;;125.13;82.68;;;;;;;;;;4894790;29;20587;-70
2022/11/27 02:32:02;;;;;;;112.60;76.85;;;;;;;;;;4894844;29;20032;-71
2022/11/27 02:34:31;;;;;;;107.57;68.40;;;;;;;;;;4894902;29;20045;-70
2022/11/27 02:37:04;;;;;;;115.18;73.28;;;;;;;;;;4894839;29;20044;-70
2022/11/27 02:39:37;;;;;;;107.07;72.10;;;;;;;;;;4895155;29;20069;-71
2022/11/27 02:42:07;;;;;;;110.53;75.03;;;;;;;;;;4895005;29;20043;-73
2022/11/27 02:44:35;;;;;;;105.95;71.57;;;;;;;;;;4895249;29;20101;-71
2022/11/27 02:47:03;;;;;;;117.82;78.47;;;;;;;;;;4895131;29;20387;-71
2022/11/27 02:49:29;;;;;;;116.75;78.60;;;;;;;;;;4895119;29;20043;-71
2022/11/27 02:51:57;;;;;;;119.55;79.38;;;;;;;;;;4894828;29;20029;-73
2022/11/27 02:54:26;;;;;;;119.47;80.25;;;;;;;;;;4895998;29;20040;-72
2022/11/27 02:56:53;;;;;;;117.32;82.75;;;;;;;;;;4898546;29;20100;-73
2022/11/27 02:59:21;;;;;;;118.40;80.40;;;;;;;;;;4898799;29;20044;-72
2022/11/27 03:01:55;;;;;;;111.30;74.13;;;;;;;;;;4898641;29;20428;-72
2022/11/27 03:04:24;;;;;;;121.00;73.60;;;;;;;;;;4985212;28;20070;-73
2022/11/27 03:06:54;;;;;;;112.63;76.72;;;;;;;;;;4996680;28;20022;-72
2022/11/27 03:09:23;;;;;;;111.95;76.80;;;;;;;;;;4996359;28;20109;-71
2022/11/27 03:11:50;;;;;;;117.30;76.35;;;;;;;;;;4996178;28;20029;-74
2022/11/27 03:14:16;;;;;;;115.78;78.57;;;;;;;;;;4996203;28;20046;-72
2022/11/27 03:16:47;;;;;;;114.15;77.55;;;;;;;;;;4996148;28;20023;-73
2022/11/27 03:19:20;;;;;;;116.53;78.65;;;;;;;;;;4996234;28;20133;-71
2022/11/27 03:21:59;;;;;;;124.95;84.45;;;;;;;;;;4988413;28;20461;-72
2022/11/27 03:24:26;;;;;;;118.53;77.78;;;;;;;;;;4995556;28;20034;-73
2022/11/27 03:26:52;;;;;;;116.45;78.38;;;;;;;;;;4995752;28;20025;-74
2022/11/27 03:29:21;;;;;;;117.35;78.22;;;;;;;;;;4995861;28;20031;-73
2022/11/27 03:31:48;;;;;;;115.90;80.30;;;;;;;;;;4995969;28;20114;-72
2022/11/27 03:34:15;;;;;;;124.78;83.05;;;;;;;;;;4995696;28;20073;-71
2022/11/27 03:36:41;;;;;;;122.60;81.00;;;;;;;;;;4995640;28;20097;-72
2022/11/27 03:39:07;;;;;;;108.63;71.95;;;;;;;;;;4995567;28;20038;-70
2022/11/27 03:41:48;;;;;;;109.65;73.93;;;;;;;;;;4995558;28;20350;-74
2022/11/27 03:44:33;;;;;;;120.18;80.75;;;;;;;;;;4995676;28;20034;-73
2022/11/27 03:46:59;;;;;;;119.00;78.15;;;;;;;;;;4995386;28;20051;-71
2022/11/27 03:49:34;;;;;;;117.25;76.43;;;;;;;;;;4995613;28;20019;-72
2022/11/27 03:52:18;;;;;;;108.65;72.47;;;;;;;;;;4995123;28;20034;-71
2022/11/27 03:55:04;;;;;;;110.88;72.28;;;;;;;;;;4995019;28;20034;-72
2022/11/27 03:57:37;;;;;;;112.50;77.18;;;;;;;;;;4995462;28;20046;-72
2022/11/27 04:00:05;;;;;;;112.97;73.40;;;;;;;;;;4995152;28;20069;-72
2022/11/27 04:02:42;;;;;;;116.07;78.57;;;;;;;;;;4995261;28;20081;-72
2022/11/27 04:05:09;;;;;;;109.60;76.68;;;;;;;;;;4994883;28;20050;-72
2022/11/27 04:07:35;;;;;;;115.25;75.38;;;;;;;;;;4994434;28;20372;-71
2022/11/27 04:10:01;;;;;;;113.40;77.55;;;;;;;;;;4995006;28;20033;-72
2022/11/27 04:12:27;;;;;;;113.80;76.70;;;;;;;;;;4995029;28;20027;-69
2022/11/27 04:14:53;;;;;;;122.03;80.22;;;;;;;;;;4995174;28;20073;-71
2022/11/27 04:17:19;;;;;;;114.00;77.18;;;;;;;;;;4995032;28;20050;-71
2022/11/27 04:19:45;;;;;;;122.65;85.47;;;;;;;;;;4994950;28;20022;-71
2022/11/27 04:22:11;;;;;;;115.57;77.50;;;;;;;;;;4987729;28;20026;-72
2022/11/27 04:24:37;;;;;;;107.35;75.60;;;;;;;;;;4994577;28;20033;-72
2022/11/27 04:27:03;;;;;;;116.38;76.78;;;;;;;;;;4994888;28;20022;-72
2022/11/27 04:29:29;;;;;;;117.63;79.22;;;;;;;;;;4994523;28;20030;-72
2022/11/27 04:31:55;;;;;;;115.10;77.50;;;;;;;;;;4994577;28;20479;-71
2022/11/27 04:34:21;;;;;;;112.30;79.40;;;;;;;;;;4994661;28;20038;-71
2022/11/27 04:36:47;;;;;;;118.03;79.28;;;;;;;;;;4994573;28;20021;-71
2022/11/27 04:39:13;;;;;;;115.75;76.68;;;;;;;;;;4994630;28;20058;-70
2022/11/27 04:41:39;;;;;;;113.30;76.95;;;;;;;;;;4994119;28;20080;-72
2022/11/27 04:44:06;;;;;;;115.43;76.10;;;;;;;;;;4994310;28;20018;-71
2022/11/27 04:46:32;;;;;;;113.90;77.78;;;;;;;;;;4977253;28;20034;-72
2022/11/27 04:48:58;;;;;;;114.35;75.90;;;;;;;;;;4994291;28;20022;-70
2022/11/27 04:51:24;;;;;;;113.90;77.60;;;;;;;;;;4992044;28;20496;-71
2022/11/27 04:53:50;;;;;;;123.63;83.05;;;;;;;;;;4994029;28;20492;-71
2022/11/27 04:56:16;;;;;;;124.38;84.53;;;;;;;;;;4994184;28;20446;-70
2022/11/27 04:58:42;;;;;;;121.43;83.97;;;;;;;;;;4994134;28;20503;-71
2022/11/27 05:01:09;;;;;;;125.10;86.43;;;;;;;;;;4993910;28;20035;-70
2022/11/27 05:03:35;;;;;;;112.78;81.03;;;;;;;;;;4993859;28;20030;-70
2022/11/27 05:06:01;;;;;;;107.05;76.40;;;;;;;;;;4994267;28;20014;-74
2022/11/27 05:08:29;;;;;;;117.93;78.72;;;;;;;;;;4994039;28;20041;-70
2022/11/27 05:11:02;;;;;;;104.18;73.65;;;;;;;;;;4994182;28;20357;-71
2022/11/27 05:13:28;;;;;;;113.80;77.13;;;;;;;;;;4994077;28;20042;-71
2022/11/27 05:15:54;;;;;;;113.53;81.57;;;;;;;;;;4993997;28;20483;-70
2022/11/27 05:18:20;;;;;;;109.63;77.68;;;;;;;;;;4993495;28;20065;-70
2022/11/27 05:20:46;;;;;;;107.78;74.03;;;;;;;;;;4986424;28;20019;-71
2022/11/27 05:23:12;;;;;;;113.40;77.10;;;;;;;;;;4993881;28;20094;-72
2022/11/27 05:25:38;;;;;;;121.90;80.60;;;;;;;;;;4993773;28;20019;-70
2022/11/27 05:28:04;;;;;;;110.85;78.85;;;;;;;;;;4993506;28;20030;-70
2022/11/27 05:30:30;;;;;;;105.80;75.20;;;;;;;;;;4993366;28;20164;-70
2022/11/27 05:32:56;;;;;;;111.85;77.88;;;;;;;;;;4993829;28;20425;-71
2022/11/27 05:35:22;;;;;;;104.60;70.95;;;;;;;;;;4993685;28;20449;-70
2022/11/27 05:37:49;;;;;;;106.22;72.60;;;;;;;;;;4993485;28;20014;-74
2022/11/27 05:40:15;;;;;;;98.78;67.22;;;;;;;;;;4993044;28;20054;-70
2022/11/27 05:42:41;;;;;;;85.00;59.05;;;;;;;;;;4993028;28;20543;-70
2022/11/27 05:45:07;;;;;;;80.65;54.40;;;;;;;;;;4993279;28;20429;-70
2022/11/27 05:47:33;;;;;;;84.57;57.45;;;;;;;;;;4993351;28;20034;-70
2022/11/27 05:49:59;;;;;;;80.78;56.00;;;;;;;;;;4991428;28;20029;-71
2022/11/27 05:52:25;;;;;;;79.85;54.63;;;;;;;;;;4993124;28;20106;-71
2022/11/27 05:54:53;;;;;;;78.20;54.30;;;;;;;;;;4975619;28;20523;-71
2022/11/27 05:57:19;;;;;;;81.13;55.05;;;;;;;;;;4993183;28;20015;-71
2022/11/27 05:59:45;;;;;;;89.00;63.80;;;;;;;;;;4993001;28;20030;-72
2022/11/27 06:02:11;;;;;;;87.63;62.15;;;;;;;;;;4992783;28;20101;-71
2022/11/27 06:04:37;;;;;;;88.88;62.25;;;;;;;;;;4992878;28;20031;-71
2022/11/27 06:07:04;;;;;;;85.60;59.10;;;;;;;;;;4993367;28;20027;-71
2022/11/27 06:09:30;;;;;;;85.03;56.85;;;;;;;;;;4993290;28;20495;-71
2022/11/27 06:11:56;;;;;;;77.07;53.17;;;;;;;;;;4993156;28;20080;-70
2022/11/27 06:14:22;;;;;;;74.53;49.95;;;;;;;;;;4992635;28;20038;-71
2022/11/27 06:16:48;;;;;;;69.78;47.97;;;;;;;;;;4992797;28;20369;-70
2022/11/27 06:19:14;;;;;;;65.68;44.72;;;;;;;;;;4992621;28;20065;-70
2022/11/27 06:21:40;;;;;;;60.67;43.20;;;;;;;;;;4985814;28;20038;-69
2022/11/27 06:24:07;;;;;;;62.35;45.60;;;;;;;;;;4992622;28;20552;-71
2022/11/27 06:26:33;;;;;;;68.32;44.80;;;;;;;;;;4992671;28;20025;-72
2022/11/27 06:29:00;;;;;;;60.15;42.08;;;;;;;;;;4992183;28;20022;-73
2022/11/27 06:31:27;;;;;;;60.70;42.88;;;;;;;;;;4992328;28;20061;-72
2022/11/27 06:33:54;;;;;;;57.80;40.85;;;;;;;;;;4992518;28;20480;-74
2022/11/27 06:36:21;;;;;;;62.65;43.92;;;;;;;;;;4992743;28;20097;-72
2022/11/27 06:38:47;;;;;;;64.43;43.33;;;;;;;;;;4992568;28;20408;-72
2022/11/27 06:41:20;;;;;;;64.28;43.40;;;;;;;;;;4992570;28;20022;-72
2022/11/27 06:43:46;;;;;;;58.13;40.58;;;;;;;;;;4992377;28;20022;-72
2022/11/27 06:46:14;;;;;;;56.90;40.42;;;;;;;;;;4992673;28;20529;-71
2022/11/27 06:48:41;;;;;;;63.85;44.95;;;;;;;;;;4992490;28;20038;-71
2022/11/27 06:51:07;;;;;;;73.13;50.17;;;;;;;;;;4990872;28;20381;-70
2022/11/27 06:53:35;;;;;;;87.88;60.20;;;;;;;;;;4992168;28;20026;-71
2022/11/27 06:56:05;;;;;;;94.15;67.10;;;;;;;;;;4992409;28;20037;-72
2022/11/27 06:58:32;;;;;;;97.85;68.53;;;;;;;;;;4992974;28;20029;-72
2022/11/27 07:00:58;;;;;;;90.93;65.72;;;;;;;;;;4992177;28;20374;-76
2022/11/27 07:03:25;;;;;;;76.22;56.72;;;;;;;;;;4992903;28;20026;-72
2022/11/27 07:05:51;;;;;;;78.25;56.45;;;;;;;;;;4992452;28;20038;-74
2022/11/27 07:08:17;;;;;;;76.88;52.47;;;;;;;;;;4992673;28;20026;-71
2022/11/27 07:10:43;;;;;;;74.60;53.08;;;;;;;;;;4992141;28;20027;-71
2022/11/27 07:13:09;;;;;;;73.93;52.35;;;;;;;;;;4992226;28;20027;-72
2022/11/27 07:15:35;;;;;;;72.15;51.55;;;;;;;;;;4992425;28;20034;-71
2022/11/27 07:18:01;;;;;;;72.45;52.72;;;;;;;;;;4992109;28;20121;-74
2022/11/27 07:20:27;;;;;;;79.82;58.25;;;;;;;;;;4987235;28;20022;-72
2022/11/27 07:22:54;;;;;;;76.38;53.78;;;;;;;;;;4990755;28;20022;-71
2022/11/27 07:25:20;;;;;;;70.80;51.63;;;;;;;;;;4992090;28;20050;-71
2022/11/27 07:27:46;;;;;;;65.75;47.53;;;;;;;;;;4992230;28;20018;-73
2022/11/27 07:30:12;;;;;;;64.30;48.65;;;;;;;;;;4992309;28;20445;-71
2022/11/27 07:32:38;;;;;;;64.35;48.15;;;;;;;;;;4991948;28;20026;-73
2022/11/27 07:35:04;;;;;;;70.97;50.30;;;;;;;;;;4991980;28;20126;-71
2022/11/27 07:37:31;;;;;;;75.43;52.88;;;;;;;;;;4992127;28;20015;-71
2022/11/27 07:39:57;;;;;;;110.90;74.65;;;;;;;;;;4991969;28;20585;-71
2022/11/27 07:42:23;;;;;;;158.73;94.57;;;;;;;;;;4994538;28;20428;-72
2022/11/27 07:44:49;;;;;;;128.75;87.25;;;;;;;;;;4995760;28;20408;-72
2022/11/27 07:47:15;;;;;;;122.53;87.80;;;;;;;;;;4994453;28;20369;-75
2022/11/27 07:49:41;;;;;;;112.25;77.80;;;;;;;;;;4995321;28;20481;-71
2022/11/27 07:52:07;;;;;;;108.22;81.10;;;;;;;;;;4992417;28;20520;-70
2022/11/27 07:54:33;;;;;;;104.63;77.05;;;;;;;;;;4995331;28;20042;-71
2022/11/27 07:56:59;;;;;;;107.85;76.07;;;;;;;;;;4995224;28;20029;-70
2022/11/27 07:59:25;;;;;;;103.32;74.55;;;;;;;;;;4995926;28;20105;-71
2022/11/27 08:01:51;;;;;;;107.15;76.07;;;;;;;;;;4995307;28;20575;-71
2022/11/27 08:04:18;;;;;;;106.80;78.57;;;;;;;;;;4995109;28;20031;-70
2022/11/27 08:06:44;;;;;;;110.35;80.40;;;;;;;;;;4995238;28;20060;-70
2022/11/27 08:09:10;;;;;;;106.15;76.82;;;;;;;;;;4995033;28;20093;-71
2022/11/27 08:11:36;;;;;;;114.65;84.38;;;;;;;;;;4994926;28;20018;-70
2022/11/27 08:14:04;;;;;;;111.40;82.75;;;;;;;;;;4994589;28;20094;-71
2022/11/27 08:16:31;;;;;;;127.30;94.30;;;;;;;;;;4994715;28;20065;-70
2022/11/27 08:18:57;;;;;;;126.75;93.68;;;;;;;;;;4994689;28;20145;-72
2022/11/27 08:21:23;;;;;;;125.10;92.57;;;;;;;;;;4987456;28;20487;-70
2022/11/27 08:23:49;;;;;;;117.10;85.25;;;;;;;;;;4994646;28;20486;-71
2022/11/27 08:26:16;;;;;;;122.03;89.25;;;;;;;;;;4994522;28;20018;-74
2022/11/27 08:28:42;;;;;;;135.98;99.38;;;;;;;;;;4994901;28;20069;-72
2022/11/27 08:31:09;;;;;;;135.75;96.60;;;;;;;;;;4977350;28;20026;-73
2022/11/27 08:33:35;;;;;;;124.93;90.40;;;;;;;;;;4994158;28;20065;-70
2022/11/27 08:36:02;;;;;;;121.20;85.72;;;;;;;;;;4994614;28;20045;-71
2022/11/27 08:38:28;;;;;;;125.50;89.80;;;;;;;;;;4994406;28;20392;-70
2022/11/27 08:40:55;;;;;;;133.40;95.65;;;;;;;;;;4994653;28;20023;-70
2022/11/27 08:43:21;;;;;;;111.65;80.75;;;;;;;;;;4994158;28;20022;-71
2022/11/27 08:45:47;;;;;;;107.43;78.15;;;;;;;;;;4994632;28;20031;-69
2022/11/27 08:48:13;;;;;;;119.28;85.68;;;;;;;;;;4994209;28;20027;-71
2022/11/27 08:50:39;;;;;;;130.43;95.60;;;;;;;;;;4975265;28;20187;-70
2022/11/27 08:53:05;;;;;;;136.15;104.20;;;;;;;;;;4993685;28;20026;-71
2022/11/27 08:55:31;;;;;;;139.60;100.50;;;;;;;;;;4994501;28;20034;-71
2022/11/27 08:57:57;;;;;;;139.65;104.75;;;;;;;;;;4994170;28;20021;-71
2022/11/27 09:00:24;;;;;;;128.50;93.13;;;;;;;;;;4994012;28;20054;-74
2022/11/27 09:02:50;;;;;;;129.75;91.63;;;;;;;;;;4994187;28;20042;-71
2022/11/27 09:05:16;;;;;;;110.32;84.45;;;;;;;;;;4993276;28;20022;-72
2022/11/27 09:07:42;;;;;;;117.28;85.25;;;;;;;;;;4993898;28;20058;-70
2022/11/27 09:10:09;;;;;;;118.13;85.55;;;;;;;;;;4993870;28;20061;-73
2022/11/27 09:12:35;;;;;;;106.70;77.82;;;;;;;;;;4994033;28;20385;-72
2022/11/27 09:15:01;;;;;;;109.97;80.82;;;;;;;;;;4993761;28;20125;-72
2022/11/27 09:17:27;;;;;;;430.27;245.43;;;;;;;;;;4993566;28;20424;-71
2022/11/27 09:19:53;;;;;;;143.35;94.45;;;;;;;;;;4993732;28;20416;-71
2022/11/27 09:22:19;;;;;;;111.28;76.95;;;;;;;;;;4992030;28;20358;-71
2022/11/27 09:24:45;;;;;;;84.63;59.25;;;;;;;;;;4993510;28;20041;-71
2022/11/27 09:27:11;;;;;;;89.65;60.65;;;;;;;;;;4993466;28;20417;-69
2022/11/27 09:29:38;;;;;;;98.65;67.90;;;;;;;;;;4993390;28;20354;-71
2022/11/27 09:32:04;;;;;;;91.07;63.42;;;;;;;;;;4993489;28;20429;-69
2022/11/27 09:34:30;;;;;;;95.57;68.57;;;;;;;;;;4993363;28;20483;-71
2022/11/27 09:36:56;;;;;;;104.28;77.07;;;;;;;;;;4993397;28;20022;-71
2022/11/27 09:39:23;;;;;;;116.53;84.20;;;;;;;;;;4993312;28;20488;-72
2022/11/27 09:41:51;;;;;;;110.03;80.53;;;;;;;;;;4992870;28;20026;-72
2022/11/27 09:44:37;;;;;;;106.55;76.30;;;;;;;;;;4993288;28;20038;-73
2022/11/27 09:47:24;;;;;;;101.40;69.68;;;;;;;;;;4993124;28;20084;-71
2022/11/27 09:49:54;;;;;;;98.28;67.28;;;;;;;;;;4976866;28;20031;-71
2022/11/27 09:52:24;;;;;;;125.07;86.00;;;;;;;;;;4993378;28;20105;-72
2022/11/27 09:55:13;;;;;;;128.35;85.47;;;;;;;;;;4993291;28;20375;-72
2022/11/27 09:57:42;;;;;;;111.55;75.60;;;;;;;;;;4901424;29;20522;-71
2022/11/27 10:00:16;;;;;;;165.10;107.93;;;;;;;;;;4914235;29;20044;-74
2022/11/27 10:02:43;;;;;;;114.85;79.30;;;;;;;;;;4914005;29;20068;-71
2022/11/27 10:05:30;;;;;;;98.45;67.78;;;;;;;;;;4913435;29;20036;-71
2022/11/27 10:08:01;;;;;;;108.03;77.43;;;;;;;;;;4913727;29;20032;-71
2022/11/27 10:10:41;;;;;;;89.43;62.90;;;;;;;;;;4913744;29;20040;-71
2022/11/27 10:13:13;;;;;;;92.60;62.00;;;;;;;;;;4908577;29;20588;-72
2022/11/27 10:15:48;;;;;;;84.80;58.58;;;;;;;;;;4913972;29;20075;-71
2022/11/27 10:18:37;;;;;;;105.00;66.90;;;;;;;;;;4913660;29;20052;-72
2022/11/27 10:21:23;;;;;;;86.57;60.28;;;;;;;;;;4913463;29;20050;-71
2022/11/27 10:24:07;;;;;;;92.00;61.60;;;;;;;;;;4913704;29;20024;-73
2022/11/27 10:26:36;;;;;;;88.45;60.38;;;;;;;;;;4913962;29;20436;-73
2022/11/27 10:29:25;;;;;;;93.10;63.17;;;;;;;;;;4913487;29;20032;-71
2022/11/27 10:31:56;;;;;;;109.68;70.60;;;;;;;;;;4857463;29;20044;-72
2022/11/27 10:34:36;;;;;;;97.15;66.47;;;;;;;;;;4879134;29;20059;-71
2022/11/27 10:37:07;;;;;;;105.93;75.25;;;;;;;;;;4915840;29;20043;-70
2022/11/27 10:39:39;;;;;;;97.27;61.03;;;;;;;;;;4932206;29;20111;-71
2022/11/27 10:42:26;;;;;;;94.10;60.45;;;;;;;;;;4932252;29;20035;-71
2022/11/27 10:44:58;;;;;;;95.53;64.35;;;;;;;;;;4932135;29;20040;-71
2022/11/27 10:47:26;;;;;;;119.68;84.78;;;;;;;;;;4932632;29;20372;-72
2022/11/27 10:49:52;;;;;;;106.18;73.93;;;;;;;;;;4932158;29;20082;-72
2022/11/27 10:52:18;;;;;;;227.93;138.35;;;;;;;;;;4930387;29;20027;-72
2022/11/27 10:54:48;;;;;;;107.43;70.32;;;;;;;;;;4932093;29;20044;-73
2022/11/27 10:57:20;;;;;;;115.25;69.45;;;;;;;;;;4931342;29;20107;-73
2022/11/27 11:00:09;;;;;;;89.32;55.28;;;;;;;;;;4932113;29;20478;-71
2022/11/27 11:02:37;;;;;;;92.68;59.38;;;;;;;;;;4875811;29;20116;-70
2022/11/27 11:05:19;;;;;;;118.47;82.38;;;;;;;;;;4875550;29;20039;-71
2022/11/27 11:08:03;;;;;;;124.00;74.97;;;;;;;;;;4876399;29;20501;-71
2022/11/27 11:10:56;;;;;;;95.10;60.95;;;;;;;;;;4894390;29;20415;-71
2022/11/27 11:13:26;;;;;;;96.80;56.63;;;;;;;;;;4891261;29;20059;-70
2022/11/27 11:15:55;;;;;;;81.82;50.88;;;;;;;;;;4896051;29;20056;-71
2022/11/27 11:18:31;;;;;;;83.78;51.00;;;;;;;;;;4897796;29;20059;-70
2022/11/27 11:21:00;;;;;;;94.15;52.45;;;;;;;;;;4893442;29;20076;-70
2022/11/27 11:23:29;;;;;;;84.63;51.00;;;;;;;;;;4897905;29;20033;-70
2022/11/27 11:25:58;;;;;;;90.78;55.78;;;;;;;;;;4895752;29;20095;-70
2022/11/27 11:28:24;;;;;;;96.75;56.30;;;;;;;;;;4897193;29;20021;-70
2022/11/27 11:31:10;;;;;;;91.68;54.38;;;;;;;;;;4897466;29;20111;-72
2022/11/27 11:33:40;;;;;;;91.00;53.53;;;;;;;;;;4896700;29;20048;-73
2022/11/27 11:36:08;;;;;;;86.82;53.10;;;;;;;;;;4897393;29;20157;-70
2022/11/27 11:38:34;;;;;;;176.63;99.70;;;;;;;;;;4901398;29;20064;-70
2022/11/27 11:41:05;;;;;;;94.22;57.53;;;;;;;;;;4975453;28;20365;-70
2022/11/27 11:43:35;;;;;;;115.80;67.40;;;;;;;;;;4975905;28;20014;-71
2022/11/27 11:46:07;;;;;;;87.80;52.88;;;;;;;;;;4976277;28;20062;-70
2022/11/27 11:48:33;;;;;;;80.07;49.45;;;;;;;;;;4975858;28;20567;-71
2022/11/27 11:51:05;;;;;;;95.53;54.47;;;;;;;;;;4970468;28;20426;-71
2022/11/27 11:53:39;;;;;;;97.95;53.78;;;;;;;;;;4975291;28;20526;-70
2022/11/27 11:56:17;;;;;;;96.72;56.97;;;;;;;;;;4975439;28;20031;-71
2022/11/27 11:58:57;;;;;;;85.40;49.30;;;;;;;;;;4974838;28;20042;-72
2022/11/27 12:01:35;;;;;;;78.50;44.80;;;;;;;;;;4974967;28;20027;-73
2022/11/27 12:04:10;;;;;;;83.20;44.85;;;;;;;;;;4974933;28;20059;-71
2022/11/27 12:06:42;;;;;;;81.28;47.60;;;;;;;;;;4975200;28;20511;-71
2022/11/27 12:09:11;;;;;;;81.78;46.67;;;;;;;;;;4975430;28;20085;-74
2022/11/27 12:11:48;;;;;;;84.95;53.70;;;;;;;;;;4975309;28;20023;-72
2022/11/27 12:14:21;;;;;;;90.75;54.25;;;;;;;;;;4974976;28;20047;-71
2022/11/27 12:16:57;;;;;;;82.90;48.97;;;;;;;;;;4976647;28;20102;-72
2022/11/27 12:19:36;;;;;;;99.78;52.97;;;;;;;;;;4993246;28;20034;-71
2022/11/27 12:22:14;;;;;;;102.60;59.45;;;;;;;;;;4973706;28;20026;-72
2022/11/27 12:24:48;;;;;;;120.30;68.90;;;;;;;;;;4976404;28;20019;-71
2022/11/27 12:27:26;;;;;;;147.57;86.63;;;;;;;;;;4993487;28;20492;-71
2022/11/27 12:29:52;;;;;;;110.55;62.67;;;;;;;;;;4994705;28;20030;-71
2022/11/27 12:32:25;;;;;;;92.30;55.22;;;;;;;;;;4994542;28;20385;-71
2022/11/27 12:35:11;;;;;;;98.13;57.30;;;;;;;;;;4994251;28;20071;-71
2022/11/27 12:37:55;;;;;;;89.97;52.78;;;;;;;;;;4994448;28;20061;-71
2022/11/27 12:40:24;;;;;;;82.10;50.25;;;;;;;;;;4994525;28;20539;-71
2022/11/27 12:42:53;;;;;;;88.53;51.63;;;;;;;;;;4994315;28;20432;-71
2022/11/27 12:45:21;;;;;;;91.68;54.40;;;;;;;;;;4993713;28;20014;-71
2022/11/27 12:47:52;;;;;;;87.43;48.55;;;;;;;;;;4993735;28;20536;-71
2022/11/27 12:50:26;;;;;;;86.60;48.38;;;;;;;;;;4992101;28;20068;-70
2022/11/27 12:53:03;;;;;;;76.18;47.10;;;;;;;;;;4983806;28;20015;-71
2022/11/27 12:55:33;;;;;;;82.75;48.40;;;;;;;;;;4994586;28;20061;-71
2022/11/27 12:58:02;;;;;;;78.68;46.30;;;;;;;;;;4993849;28;20023;-70
2022/11/27 13:00:31;;;;;;;87.38;50.40;;;;;;;;;;4993969;28;20435;-71
2022/11/27 13:03:04;;;;;;;85.75;51.60;;;;;;;;;;4993884;28;20094;-71
2022/11/27 13:05:33;;;;;;;84.30;51.13;;;;;;;;;;4994171;28;20425;-71
2022/11/27 13:08:11;;;;;;;86.75;51.75;;;;;;;;;;4994210;28;20388;-71
2022/11/27 13:10:37;;;;;;;94.03;53.65;;;;;;;;;;4993603;28;20030;-71
2022/11/27 13:13:33;;;;;;;92.32;54.10;;;;;;;;;;4993922;28;20061;-71
2022/11/27 13:16:37;;;;;;;83.65;50.75;;;;;;;;;;4895718;29;20040;-71
2022/11/27 13:19:06;;;;;;;84.72;52.25;;;;;;;;;;4858635;29;20057;-71
2022/11/27 13:21:34;;;;;;;96.30;57.80;;;;;;;;;;4858306;29;20078;-70
2022/11/27 13:24:00;;;;;;;87.90;52.40;;;;;;;;;;4858257;29;20081;-71
2022/11/27 13:26:44;;;;;;;89.55;56.33;;;;;;;;;;4858512;29;20507;-71
2022/11/27 13:29:17;;;;;;;99.03;57.33;;;;;;;;;;4858554;29;20112;-70
2022/11/27 13:31:44;;;;;;;115.93;69.88;;;;;;;;;;4858391;29;20046;-70
2022/11/27 13:34:17;;;;;;;110.00;63.58;;;;;;;;;;4858236;29;20081;-70
2022/11/27 13:36:44;;;;;;;102.55;60.80;;;;;;;;;;4858236;29;20037;-71
2022/11/27 13:39:22;;;;;;;88.80;51.47;;;;;;;;;;4858247;29;20576;-71
2022/11/27 13:41:48;;;;;;;75.70;48.92;;;;;;;;;;4858132;29;20446;-71
2022/11/27 13:44:24;;;;;;;100.35;61.33;;;;;;;;;;4857703;29;20544;-71
2022/11/27 13:46:53;;;;;;;89.68;51.95;;;;;;;;;;4858309;29;20541;-73
2022/11/27 13:49:30;;;;;;;85.93;50.50;;;;;;;;;;4869283;29;20097;-72
2022/11/27 13:52:23;;;;;;;80.18;46.38;;;;;;;;;;4926224;28;20036;-71
2022/11/27 13:54:55;;;;;;;75.65;43.90;;;;;;;;;;4989243;28;20369;-71
2022/11/27 13:57:22;;;;;;;84.05;48.55;;;;;;;;;;4993122;28;20034;-73
2022/11/27 14:00:01;;;;;;;83.35;49.28;;;;;;;;;;4993097;28;20384;-72
2022/11/27 14:02:39;;;;;;;80.97;49.65;;;;;;;;;;4992948;28;20041;-71
2022/11/27 14:05:06;;;;;;;95.25;56.22;;;;;;;;;;4993064;28;20179;-71
2022/11/27 14:07:37;;;;;;;88.82;53.92;;;;;;;;;;4993160;28;20552;-71
2022/11/27 14:10:18;;;;;;;86.25;48.15;;;;;;;;;;4993081;28;20026;-72
2022/11/27 14:13:04;;;;;;;96.13;55.08;;;;;;;;;;4992706;28;20018;-71
2022/11/27 14:15:30;;;;;;;83.97;47.17;;;;;;;;;;4993124;28;20034;-72
2022/11/27 14:18:08;;;;;;;89.70;49.38;;;;;;;;;;4992091;28;20054;-71
2022/11/27 14:20:35;;;;;;;89.28;52.78;;;;;;;;;;4988867;28;20114;-71
2022/11/27 14:23:01;;;;;;;89.65;52.38;;;;;;;;;;4992261;28;20465;-71
2022/11/27 14:25:32;;;;;;;95.50;51.15;;;;;;;;;;4992763;28;20041;-71